Saint Petersburg, Pennsylvania
Current Conditions -  °F | °C
As of 8:15 AM on Wednesday 22 Oct 2014 (Local Time) from KFKL Reporting Station
Overcast Overcast  
Wind Chill: 39°   Ceiling: 600
Heat Index: 43°   Visibility: 10mi
Dew Point: 39°   Wind: 7mph
Humidity: 87%   Direction: 360°N
Pressure: 30.15"   Gusts: NA
Location:  41.16°N, 79.65°W
Report Text: KFKL 221215Z 36006KT 10SM OVC006 06/04 A3015 RMK AO1
Loading
Personal Weather Stations






























Interactive Weather Map
Tropical Storm Tracking
New forecast layout! Learn more

10-Day Weather Forecast

Advertisements
Track Severe Weather on mobile